Time;durP1;ratioP1;P1;durP2;ratioP2;P2;SDS_P1;SDS_P2;PMS_P1;PMS_P2;Temp;Humidity;BMP_temperature;BMP_pressure;BME280_temperature;BME280_humidity;BME280_pressure;Samples;Min_cycle;Max_cycle;Signal;HPM_P1;HPM_P2
2021/09/10 00:00:39;;;;;;;4.10;2.15;;;22.30;57.10;;;;;;2356440;52;22083;-69
2021/09/10 00:03:05;;;;;;;3.55;2.10;;;22.30;57.10;;;;;;2353288;53;21018;-74
2021/09/10 00:05:31;;;;;;;3.15;1.83;;;22.30;57.10;;;;;;2351643;53;21395;-71
2021/09/10 00:07:58;;;;;;;2.97;1.67;;;22.20;57.00;;;;;;2502920;52;21796;-73
2021/09/10 00:10:24;;;;;;;4.07;2.08;;;22.20;57.10;;;;;;2350721;52;21506;-70
2021/09/10 00:12:50;;;;;;;3.15;1.77;;;22.20;57.10;;;;;;2567092;52;20999;-72
2021/09/10 00:15:16;;;;;;;3.40;1.70;;;22.20;57.10;;;;;;2351762;53;20970;-68
2021/09/10 00:17:43;;;;;;;3.90;2.25;;;22.20;57.20;;;;;;2351780;52;21554;-69
2021/09/10 00:20:10;;;;;;;3.15;2.10;;;22.20;57.20;;;;;;2352467;53;21396;-72
2021/09/10 00:22:36;;;;;;;3.45;1.98;;;22.20;57.30;;;;;;2356728;52;21554;-74
2021/09/10 00:25:02;;;;;;;3.90;2.15;;;22.20;57.30;;;;;;2595956;52;21017;-74
2021/09/10 00:27:28;;;;;;;4.25;2.10;;;22.10;57.20;;;;;;2581621;52;20938;-72
2021/09/10 00:29:55;;;;;;;3.65;2.20;;;22.10;57.20;;;;;;2351197;53;20978;-74
2021/09/10 00:32:21;;;;;;;3.92;2.22;;;22.10;57.20;;;;;;2352272;53;21251;-73
2021/09/10 00:34:47;;;;;;;3.28;1.90;;;22.10;57.20;;;;;;2414258;52;21084;-73
2021/09/10 00:37:13;;;;;;;3.10;1.75;;;22.10;57.20;;;;;;2407356;52;20958;-74
2021/09/10 00:39:40;;;;;;;5.25;2.83;;;22.10;57.20;;;;;;2359445;53;20938;-70
2021/09/10 00:42:06;;;;;;;3.50;2.22;;;22.00;57.20;;;;;;2331276;53;20938;-74
2021/09/10 00:44:32;;;;;;;4.05;2.30;;;22.00;57.20;;;;;;2353678;52;20934;-71
2021/09/10 00:46:58;;;;;;;4.18;2.50;;;22.00;57.20;;;;;;2604586;52;20962;-74
2021/09/10 00:49:25;;;;;;;4.28;2.35;;;22.00;57.40;;;;;;2352688;53;21319;-72
2021/09/10 00:51:51;;;;;;;4.00;2.67;;;22.00;57.30;;;;;;2351330;52;22059;-75
2021/09/10 00:54:20;;;;;;;4.65;2.37;;;21.90;57.30;;;;;;2357695;52;20995;-72
2021/09/10 00:56:46;;;;;;;4.30;2.50;;;21.90;57.30;;;;;;2352362;53;21328;-74
2021/09/10 00:59:12;;;;;;;3.55;2.10;;;21.90;57.30;;;;;;2356971;52;21502;-73
2021/09/10 01:01:39;;;;;;;4.05;2.30;;;21.90;57.30;;;;;;2386449;52;20953;-73
2021/09/10 01:04:05;;;;;;;3.50;2.05;;;21.80;57.30;;;;;;2352489;52;21131;-72
2021/09/10 01:06:34;;;;;;;3.20;2.03;;;21.80;57.40;;;;;;2603489;52;21482;-72
2021/09/10 01:09:01;;;;;;;3.40;2.15;;;21.80;57.40;;;;;;2341179;53;21058;-70
2021/09/10 01:11:46;;;;;;;4.85;1.87;;;21.70;57.30;;;;;;2466542;52;21092;-69
2021/09/10 01:14:12;;;;;;;3.33;2.20;;;21.70;57.50;;;;;;2351657;53;20942;-73
2021/09/10 01:16:38;;;;;;;3.42;2.30;;;21.70;57.40;;;;;;2352532;53;21057;-72
2021/09/10 01:19:05;;;;;;;3.30;2.03;;;21.60;57.40;;;;;;2364825;52;21006;-69
2021/09/10 01:21:32;;;;;;;3.70;2.25;;;21.60;57.40;;;;;;2340857;53;20926;-71
2021/09/10 01:23:58;;;;;;;3.75;2.22;;;21.60;57.50;;;;;;2352394;53;20945;-72
2021/09/10 01:26:24;;;;;;;4.93;2.65;;;21.50;57.50;;;;;;2352479;52;21005;-71
2021/09/10 01:28:50;;;;;;;5.78;2.45;;;21.50;57.50;;;;;;2352555;53;20930;-69
2021/09/10 01:31:17;;;;;;;4.62;2.70;;;21.40;57.50;;;;;;2352073;52;20949;-73
2021/09/10 01:33:43;;;;;;;4.78;2.80;;;21.40;57.70;;;;;;2352278;53;21021;-71
2021/09/10 01:36:14;;;;;;;4.03;2.58;;;21.40;57.70;;;;;;2455616;52;20934;-75
2021/09/10 01:38:40;;;;;;;4.00;2.60;;;21.40;57.80;;;;;;2603276;52;22116;-70
2021/09/10 01:41:07;;;;;;;5.43;2.45;;;21.40;57.80;;;;;;2354176;53;21125;-70
2021/09/10 01:43:33;;;;;;;4.22;2.70;;;21.30;57.80;;;;;;2352418;53;20985;-69
2021/09/10 01:45:59;;;;;;;14.02;3.30;;;21.30;57.90;;;;;;2502550;52;20999;-72
2021/09/10 01:48:26;;;;;;;4.15;2.80;;;21.30;58.00;;;;;;2352390;53;21001;-70
2021/09/10 01:50:52;;;;;;;4.45;3.00;;;21.20;58.10;;;;;;2352242;53;20937;-73
2021/09/10 01:53:21;;;;;;;3.65;2.60;;;21.20;58.10;;;;;;2352372;52;20989;-71
2021/09/10 01:55:48;;;;;;;4.90;2.60;;;21.20;58.20;;;;;;2602590;52;21022;-71
2021/09/10 01:58:14;;;;;;;4.25;2.70;;;21.20;58.20;;;;;;2351757;53;20953;-73
2021/09/10 02:00:40;;;;;;;3.67;2.60;;;21.10;58.10;;;;;;2352938;52;21032;-70
2021/09/10 02:03:06;;;;;;;4.90;3.10;;;21.10;58.10;;;;;;2359642;52;20957;-70
2021/09/10 02:05:33;;;;;;;4.97;2.45;;;21.10;58.20;;;;;;2558363;52;21050;-72
2021/09/10 02:07:59;;;;;;;3.58;2.03;;;21.10;58.30;;;;;;2351854;53;20992;-71
2021/09/10 02:10:26;;;;;;;4.47;2.80;;;21.10;58.20;;;;;;2435830;52;20997;-71
2021/09/10 02:12:52;;;;;;;3.58;2.35;;;21.10;58.30;;;;;;2351656;53;20941;-74
2021/09/10 02:15:18;;;;;;;5.40;2.53;;;21.00;58.20;;;;;;2352698;53;20968;-74
2021/09/10 02:17:44;;;;;;;4.20;2.70;;;21.00;58.10;;;;;;2451235;52;21345;-72
2021/09/10 02:20:11;;;;;;;4.40;2.70;;;21.00;58.20;;;;;;2352603;53;20973;-72
2021/09/10 02:22:37;;;;;;;4.85;2.78;;;20.90;58.10;;;;;;2352727;53;21164;-72
2021/09/10 02:25:04;;;;;;;4.28;3.00;;;20.90;58.20;;;;;;2352286;53;22090;-73
2021/09/10 02:27:30;;;;;;;4.47;2.85;;;20.90;58.20;;;;;;2352556;53;20958;-70
2021/09/10 02:29:57;;;;;;;3.97;2.70;;;20.80;58.30;;;;;;2352219;53;20977;-72
2021/09/10 02:32:23;;;;;;;4.10;2.70;;;20.80;58.40;;;;;;2352448;53;21361;-70
2021/09/10 02:34:49;;;;;;;3.97;2.37;;;20.70;58.30;;;;;;2357060;52;21618;-71
2021/09/10 02:37:15;;;;;;;5.87;3.15;;;20.70;58.40;;;;;;2352453;53;20978;-73
2021/09/10 02:39:41;;;;;;;3.70;2.35;;;20.70;58.50;;;;;;2352759;53;20930;-69
2021/09/10 02:42:09;;;;;;;4.55;2.12;;;20.70;58.60;;;;;;2352945;53;21037;-73
2021/09/10 02:44:35;;;;;;;5.28;2.83;;;20.70;58.70;;;;;;2601826;52;20966;-69
2021/09/10 02:47:01;;;;;;;4.00;2.95;;;20.70;58.80;;;;;;2356340;52;21050;-72
2021/09/10 02:49:27;;;;;;;4.70;2.92;;;20.70;58.80;;;;;;2352521;53;20993;-72
2021/09/10 02:51:54;;;;;;;4.05;2.80;;;20.60;58.90;;;;;;2353061;52;20902;-71
2021/09/10 02:54:20;;;;;;;3.62;2.42;;;20.70;59.00;;;;;;2392254;52;20954;-73
2021/09/10 02:56:46;;;;;;;4.55;3.15;;;20.60;59.00;;;;;;2353025;53;20941;-70
2021/09/10 02:59:12;;;;;;;5.43;2.70;;;20.60;59.00;;;;;;2357106;52;21006;-72
2021/09/10 03:01:43;;;;;;;5.53;3.37;;;20.70;59.20;;;;;;2351956;53;20973;-70
2021/09/10 03:04:11;;;;;;;4.45;2.95;;;20.70;59.30;;;;;;2352440;53;21503;-73
2021/09/10 03:06:37;;;;;;;5.65;3.17;;;20.70;59.40;;;;;;2352370;53;20957;-73
2021/09/10 03:09:04;;;;;;;4.62;3.00;;;20.60;59.40;;;;;;2352689;53;21495;-71
2021/09/10 03:11:30;;;;;;;5.40;3.00;;;20.70;59.50;;;;;;2352589;53;20973;-73
2021/09/10 03:13:56;;;;;;;5.20;3.20;;;20.70;59.60;;;;;;2355864;53;20978;-73
2021/09/10 03:16:24;;;;;;;4.75;2.20;;;20.70;59.60;;;;;;2542870;52;21088;-72
2021/09/10 03:18:51;;;;;;;5.43;2.87;;;20.70;59.60;;;;;;2352629;53;21495;-68
2021/09/10 03:21:17;;;;;;;4.43;2.55;;;20.70;59.60;;;;;;2352887;53;20973;-74
2021/09/10 03:23:43;;;;;;;4.78;3.15;;;20.70;59.70;;;;;;2352784;53;20930;-71
2021/09/10 03:26:10;;;;;;;4.37;2.75;;;20.70;59.70;;;;;;2357154;52;21037;-70
2021/09/10 03:28:36;;;;;;;4.53;3.22;;;20.70;59.70;;;;;;2356907;52;21010;-71
2021/09/10 03:31:02;;;;;;;4.97;2.87;;;20.70;59.80;;;;;;2352378;53;21423;-71
2021/09/10 03:33:28;;;;;;;7.68;2.53;;;20.70;59.70;;;;;;2538140;52;21030;-72
2021/09/10 03:35:55;;;;;;;5.05;2.92;;;20.60;59.60;;;;;;2352370;53;20934;-72
2021/09/10 03:38:21;;;;;;;5.43;3.70;;;20.70;59.70;;;;;;2352824;53;20961;-69
2021/09/10 03:40:47;;;;;;;5.07;3.17;;;20.70;59.80;;;;;;2353009;53;22032;-72
2021/09/10 03:43:13;;;;;;;7.60;3.35;;;20.70;59.80;;;;;;2357403;52;22025;-71
2021/09/10 03:45:40;;;;;;;4.85;3.15;;;20.70;59.80;;;;;;2351887;53;20957;-71
2021/09/10 03:48:07;;;;;;;4.12;2.47;;;20.70;59.80;;;;;;2602747;52;20931;-72
2021/09/10 03:50:33;;;;;;;4.60;3.15;;;20.70;59.80;;;;;;2554933;52;20969;-69
2021/09/10 03:53:00;;;;;;;4.53;2.97;;;20.70;59.80;;;;;;2593122;52;20949;-71
2021/09/10 03:55:26;;;;;;;3.92;2.37;;;20.70;59.80;;;;;;2347748;53;20962;-72
2021/09/10 03:57:52;;;;;;;4.00;2.67;;;20.70;59.80;;;;;;2354052;52;20991;-71
2021/09/10 04:00:18;;;;;;;5.22;3.30;;;20.70;59.80;;;;;;2384481;53;20978;-72
2021/09/10 04:02:46;;;;;;;4.80;2.92;;;20.70;59.80;;;;;;2598799;52;20944;-70
2021/09/10 04:05:12;;;;;;;4.25;2.75;;;20.80;59.90;;;;;;2599706;52;21048;-71
2021/09/10 04:07:39;;;;;;;4.85;2.87;;;20.80;60.00;;;;;;2353946;52;21610;-71
2021/09/10 04:10:06;;;;;;;5.80;2.85;;;20.80;60.00;;;;;;2423792;52;21004;-73
2021/09/10 04:12:32;;;;;;;3.92;2.50;;;20.70;59.90;;;;;;2349499;52;20985;-72
2021/09/10 04:14:58;;;;;;;4.32;2.95;;;20.80;60.00;;;;;;2354671;52;20970;-72
2021/09/10 04:17:24;;;;;;;4.70;3.20;;;20.70;59.90;;;;;;2350095;53;20953;-70
2021/09/10 04:19:51;;;;;;;4.40;2.55;;;20.70;59.90;;;;;;2334039;53;21141;-69
2021/09/10 04:22:17;;;;;;;4.15;2.65;;;20.70;60.00;;;;;;2361438;52;21432;-71
2021/09/10 04:24:44;;;;;;;4.15;2.80;;;20.70;60.00;;;;;;2343272;53;20979;-72
2021/09/10 04:27:10;;;;;;;4.90;3.30;;;20.70;60.00;;;;;;2419596;52;20945;-72
2021/09/10 04:29:36;;;;;;;4.25;2.95;;;20.70;60.10;;;;;;2428597;52;21057;-70
2021/09/10 04:32:03;;;;;;;4.53;2.83;;;20.70;60.10;;;;;;2348849;53;21465;-71
2021/09/10 04:34:29;;;;;;;4.45;2.78;;;20.70;60.10;;;;;;2352454;52;21074;-70
2021/09/10 04:36:56;;;;;;;4.40;3.08;;;20.70;60.20;;;;;;2348394;53;21366;-69
2021/09/10 04:39:22;;;;;;;4.75;3.08;;;20.70;60.30;;;;;;2558363;52;21002;-71
2021/09/10 04:41:48;;;;;;;4.20;2.90;;;20.70;60.30;;;;;;2347339;52;21309;-70
2021/09/10 04:44:14;;;;;;;4.70;2.97;;;20.70;60.30;;;;;;2355671;52;21409;-70
2021/09/10 04:46:41;;;;;;;5.43;3.58;;;20.70;60.40;;;;;;2345577;52;21474;-71
2021/09/10 04:49:07;;;;;;;4.30;2.72;;;20.80;60.60;;;;;;2353670;53;21409;-71
2021/09/10 04:51:33;;;;;;;4.80;3.05;;;20.70;60.50;;;;;;2345742;53;20986;-70
2021/09/10 04:54:00;;;;;;;4.57;3.20;;;20.70;60.50;;;;;;2350757;52;21360;-72
2021/09/10 04:56:26;;;;;;;4.85;3.50;;;20.70;60.60;;;;;;2348148;53;20981;-70
2021/09/10 04:58:53;;;;;;;4.93;3.40;;;20.80;60.70;;;;;;2351685;53;21006;-70
2021/09/10 05:01:19;;;;;;;4.60;3.15;;;20.80;60.70;;;;;;2346564;53;20953;-72
2021/09/10 05:03:45;;;;;;;4.30;2.72;;;20.80;60.70;;;;;;2352022;52;21388;-69
2021/09/10 05:06:13;;;;;;;5.12;3.05;;;20.80;60.70;;;;;;2346426;53;21311;-70
2021/09/10 05:08:40;;;;;;;3.62;2.42;;;20.80;60.80;;;;;;2534852;52;21498;-68
2021/09/10 05:11:06;;;;;;;4.90;3.28;;;20.80;60.80;;;;;;2346876;53;20993;-70
2021/09/10 05:13:32;;;;;;;4.53;3.00;;;20.80;60.80;;;;;;2393106;52;20940;-72
2021/09/10 05:15:58;;;;;;;4.05;2.80;;;20.90;60.80;;;;;;2346948;52;21392;-70
2021/09/10 05:18:25;;;;;;;5.03;3.37;;;20.90;60.90;;;;;;2347103;53;20977;-74
2021/09/10 05:20:51;;;;;;;5.20;3.37;;;20.90;60.90;;;;;;2420596;52;21052;-72
2021/09/10 05:23:17;;;;;;;5.10;3.28;;;20.90;60.90;;;;;;2466038;52;20946;-71
2021/09/10 05:25:43;;;;;;;4.43;2.78;;;20.90;60.90;;;;;;2432485;52;21038;-72
2021/09/10 05:28:10;;;;;;;4.87;3.10;;;20.90;60.90;;;;;;2346602;53;21041;-73
2021/09/10 05:30:36;;;;;;;4.57;2.83;;;20.90;60.90;;;;;;2443121;52;21486;-70
2021/09/10 05:33:02;;;;;;;4.95;3.55;;;20.90;60.90;;;;;;2355802;52;21466;-72
2021/09/10 05:35:28;;;;;;;4.85;3.25;;;20.90;60.90;;;;;;2345566;52;21379;-72
2021/09/10 05:37:55;;;;;;;4.45;3.20;;;21.00;61.00;;;;;;2596076;52;20954;-71
2021/09/10 05:40:21;;;;;;;4.93;3.25;;;21.00;61.10;;;;;;2346748;53;22117;-72
2021/09/10 05:42:49;;;;;;;5.05;3.10;;;21.00;61.10;;;;;;2354063;52;21519;-71
2021/09/10 05:45:15;;;;;;;4.60;3.20;;;21.00;61.20;;;;;;2339554;53;21878;-72
2021/09/10 05:47:41;;;;;;;4.60;2.78;;;21.00;61.60;;;;;;2350702;53;21114;-73
2021/09/10 05:50:08;;;;;;;4.68;2.90;;;21.00;61.30;;;;;;2338941;53;20926;-74
2021/09/10 05:52:34;;;;;;;3.95;2.62;;;21.10;61.50;;;;;;2342636;53;20930;-75
2021/09/10 05:55:00;;;;;;;4.07;2.45;;;21.10;61.60;;;;;;2359016;52;21078;-70
2021/09/10 05:57:26;;;;;;;3.72;2.20;;;21.10;61.70;;;;;;2333835;53;21607;-72
2021/09/10 05:59:53;;;;;;;3.47;2.40;;;21.20;61.90;;;;;;2347134;53;21527;-74
2021/09/10 06:02:21;;;;;;;3.47;2.12;;;21.20;61.90;;;;;;2346473;53;20934;-71
2021/09/10 06:04:47;;;;;;;4.00;2.47;;;21.20;61.90;;;;;;2351099;53;21065;-72
2021/09/10 06:07:14;;;;;;;3.72;2.37;;;21.20;61.90;;;;;;2489524;52;20930;-72
2021/09/10 06:09:40;;;;;;;3.55;2.20;;;21.20;62.60;;;;;;2444333;52;20933;-72
2021/09/10 06:12:06;;;;;;;4.00;2.40;;;21.20;61.90;;;;;;2555615;52;20950;-73
2021/09/10 06:14:32;;;;;;;4.68;2.95;;;21.20;61.90;;;;;;2346261;53;21130;-69
2021/09/10 06:16:59;;;;;;;3.22;2.10;;;21.20;61.90;;;;;;2346690;53;20953;-72
2021/09/10 06:19:25;;;;;;;6.93;2.92;;;21.20;62.00;;;;;;2346727;53;20958;-72
2021/09/10 06:21:52;;;;;;;5.03;2.80;;;21.20;62.10;;;;;;2345954;52;21516;-73
2021/09/10 06:24:18;;;;;;;4.50;3.05;;;21.20;62.20;;;;;;2463792;52;21323;-71
2021/09/10 06:26:46;;;;;;;3.70;2.47;;;21.20;62.20;;;;;;2354387;52;21005;-71
2021/09/10 06:29:13;;;;;;;4.70;2.35;;;21.30;62.40;;;;;;2350414;53;20955;-70
2021/09/10 06:31:39;;;;;;;4.75;3.08;;;21.30;62.40;;;;;;2346416;53;21496;-70
2021/09/10 06:34:06;;;;;;;4.75;3.00;;;21.30;62.50;;;;;;2346548;53;20965;-70
2021/09/10 06:36:33;;;;;;;3.90;2.70;;;21.30;62.70;;;;;;2354857;52;21389;-71
2021/09/10 06:38:59;;;;;;;3.78;2.72;;;21.30;62.70;;;;;;2333042;53;21397;-71
2021/09/10 06:41:25;;;;;;;3.72;2.53;;;21.30;62.80;;;;;;2346792;53;20961;-70
2021/09/10 06:43:51;;;;;;;3.90;2.42;;;21.40;62.90;;;;;;2596096;52;20942;-70
2021/09/10 06:46:18;;;;;;;4.18;2.75;;;21.50;63.10;;;;;;2457119;52;21405;-70
2021/09/10 06:48:44;;;;;;;4.07;2.65;;;21.40;63.10;;;;;;2410413;52;21048;-72
2021/09/10 06:51:10;;;;;;;4.22;2.80;;;21.50;63.30;;;;;;2346780;53;21418;-73
2021/09/10 06:53:36;;;;;;;4.25;2.80;;;21.50;63.30;;;;;;2346666;52;24811;-73
2021/09/10 06:56:03;;;;;;;3.83;2.35;;;21.50;63.30;;;;;;2347180;53;21961;-73
2021/09/10 06:58:31;;;;;;;4.68;2.70;;;21.60;63.50;;;;;;2350582;53;21512;-73
2021/09/10 07:00:57;;;;;;;3.83;2.40;;;21.50;63.60;;;;;;2347288;53;21001;-70
2021/09/10 07:03:24;;;;;;;3.70;2.25;;;21.70;63.90;;;;;;2347178;53;21819;-71
2021/09/10 07:05:50;;;;;;;5.25;3.10;;;21.70;64.00;;;;;;2346665;52;21930;-73
2021/09/10 07:08:16;;;;;;;4.53;2.95;;;21.80;64.30;;;;;;2350331;52;21018;-73
2021/09/10 07:10:42;;;;;;;4.72;3.05;;;21.80;64.40;;;;;;2352173;52;20999;-71
2021/09/10 07:13:08;;;;;;;4.82;3.15;;;21.90;64.50;;;;;;2344202;53;21176;-72
2021/09/10 07:15:35;;;;;;;4.47;2.85;;;21.90;64.60;;;;;;2347617;53;21509;-70
2021/09/10 07:18:01;;;;;;;4.53;2.70;;;22.00;64.80;;;;;;2347222;53;21012;-71
2021/09/10 07:20:27;;;;;;;5.65;3.42;;;22.00;64.80;;;;;;2347384;53;21417;-72
2021/09/10 07:22:54;;;;;;;4.25;2.87;;;22.10;64.90;;;;;;2347199;53;20933;-73
2021/09/10 07:25:20;;;;;;;4.87;3.05;;;22.20;65.00;;;;;;2347567;53;21084;-70
2021/09/10 07:27:46;;;;;;;5.68;3.00;;;22.20;65.00;;;;;;2396946;52;20954;-73
2021/09/10 07:30:13;;;;;;;6.40;3.42;;;22.30;65.00;;;;;;2347403;53;20942;-74
2021/09/10 07:32:39;;;;;;;4.30;2.53;;;22.40;65.20;;;;;;2347216;53;21335;-73
2021/09/10 07:35:07;;;;;;;5.20;3.33;;;22.40;65.10;;;;;;2350480;53;20962;-73
2021/09/10 07:37:33;;;;;;;4.82;3.42;;;22.50;65.20;;;;;;2347128;53;21001;-71
2021/09/10 07:40:00;;;;;;;5.25;2.97;;;22.50;64.90;;;;;;2346584;53;21566;-71
2021/09/10 07:42:26;;;;;;;5.82;4.40;;;22.60;64.80;;;;;;2347414;52;21503;-73
2021/09/10 07:44:52;;;;;;;5.25;3.78;;;22.60;64.60;;;;;;2347488;53;21920;-70
2021/09/10 07:47:18;;;;;;;4.72;3.55;;;22.70;64.40;;;;;;2346928;53;20988;-71
2021/09/10 07:49:45;;;;;;;6.28;4.12;;;22.70;64.30;;;;;;2414899;52;20939;-71
2021/09/10 07:52:11;;;;;;;5.55;4.30;;;22.80;64.20;;;;;;2346403;52;21387;-70
2021/09/10 07:54:38;;;;;;;7.22;3.90;;;22.80;64.10;;;;;;2380423;52;21864;-74
2021/09/10 07:57:07;;;;;;;6.05;4.32;;;22.80;63.90;;;;;;2347113;53;21360;-74
2021/09/10 07:59:33;;;;;;;5.53;4.12;;;22.80;63.90;;;;;;2384739;52;21487;-73
2021/09/10 08:01:59;;;;;;;6.30;3.95;;;22.90;63.90;;;;;;2337073;53;21485;-73
2021/09/10 08:04:25;;;;;;;5.07;3.70;;;22.90;63.90;;;;;;2351500;52;21082;-72
2021/09/10 08:06:52;;;;;;;4.05;3.12;;;22.90;63.90;;;;;;2388156;52;21603;-70
2021/09/10 08:09:18;;;;;;;6.70;3.78;;;22.90;64.00;;;;;;2348567;53;20967;-73
2021/09/10 08:11:44;;;;;;;4.85;3.62;;;23.00;64.00;;;;;;2333805;53;20967;-73
2021/09/10 08:14:10;;;;;;;5.62;4.40;;;23.00;63.90;;;;;;2346707;53;21057;-70
2021/09/10 08:16:37;;;;;;;5.70;3.95;;;23.00;64.00;;;;;;2371404;52;22030;-73
2021/09/10 08:19:03;;;;;;;5.05;3.53;;;23.10;64.10;;;;;;2338462;53;21903;-74
2021/09/10 08:21:39;;;;;;;4.75;3.53;;;23.10;64.20;;;;;;2598453;52;20938;-73
2021/09/10 08:24:09;;;;;;;4.72;3.12;;;23.10;64.30;;;;;;2491906;52;20941;-71
2021/09/10 08:26:35;;;;;;;4.47;3.22;;;23.20;64.40;;;;;;2347422;53;21025;-73
2021/09/10 08:29:01;;;;;;;5.30;3.95;;;23.20;64.50;;;;;;2347599;53;21006;-70
2021/09/10 08:31:27;;;;;;;6.25;4.03;;;23.30;64.80;;;;;;2350813;52;20959;-70
2021/09/10 08:33:54;;;;;;;5.35;4.10;;;23.30;64.60;;;;;;2344914;53;21076;-72
2021/09/10 08:36:22;;;;;;;4.70;3.55;;;23.40;64.80;;;;;;2349763;53;21485;-74
2021/09/10 08:38:48;;;;;;;5.25;4.07;;;23.50;65.10;;;;;;2351150;53;21368;-71
2021/09/10 08:41:15;;;;;;;5.45;4.28;;;23.60;65.20;;;;;;2341691;53;20935;-73
2021/09/10 08:43:48;;;;;;;8.13;3.90;;;23.60;65.00;;;;;;2355334;53;21253;-71
2021/09/10 08:46:14;;;;;;;;;;;23.70;65.10;;;;;;2340752;53;21112;-74
2021/09/10 08:48:46;;;;;;;5.32;4.15;;;23.80;64.90;;;;;;2347746;52;20070;-70
2021/09/10 08:51:13;;;;;;;5.62;4.28;;;23.90;64.40;;;;;;2345599;53;21005;-71
2021/09/10 08:53:39;;;;;;;4.95;3.53;;;23.90;64.30;;;;;;2330892;53;21542;-72
2021/09/10 08:56:06;;;;;;;4.80;3.87;;;24.00;64.40;;;;;;2352627;52;21089;-71
2021/09/10 08:58:32;;;;;;;5.50;3.90;;;24.10;64.50;;;;;;2347509;53;20918;-69
2021/09/10 09:01:02;;;;;;;5.05;3.62;;;24.10;64.50;;;;;;2347844;53;21414;-71
2021/09/10 09:03:29;;;;;;;5.32;3.92;;;24.20;64.40;;;;;;2352344;52;21034;-75
2021/09/10 09:05:55;;;;;;;5.40;4.03;;;24.20;64.90;;;;;;2596524;52;21582;-75
2021/09/10 09:08:22;;;;;;;5.72;4.55;;;24.20;64.30;;;;;;2352004;52;21396;-72
2021/09/10 09:11:11;;;;;;;5.25;3.83;;;24.30;64.00;;;;;;2344746;53;20977;-72
2021/09/10 09:13:39;;;;;;;6.65;4.93;;;24.40;63.50;;;;;;2327756;53;21532;-72
2021/09/10 09:16:26;;;;;;;5.87;4.68;;;24.40;63.40;;;;;;2367507;52;21478;-74
2021/09/10 09:18:57;;;;;;;7.00;4.62;;;24.50;62.80;;;;;;2574376;52;21491;-72
2021/09/10 09:21:28;;;;;;;4.90;3.80;;;24.50;63.30;;;;;;2343259;53;21580;-72
2021/09/10 09:23:58;;;;;;;5.25;3.95;;;24.50;63.30;;;;;;2333995;53;20938;-72
2021/09/10 09:26:27;;;;;;;6.05;4.05;;;24.60;63.50;;;;;;2346783;52;20958;-73
2021/09/10 09:29:08;;;;;;;5.90;4.40;;;24.60;63.40;;;;;;2416067;52;21163;-74
2021/09/10 09:31:35;;;;;;;6.15;3.97;;;24.70;63.10;;;;;;2351330;52;21098;-73
2021/09/10 09:34:02;;;;;;;5.97;4.12;;;24.70;63.10;;;;;;2351692;53;21268;-73
2021/09/10 09:36:28;;;;;;;5.32;4.22;;;24.70;63.30;;;;;;2563107;52;21060;-69
2021/09/10 09:38:55;;;;;;;5.65;4.50;;;24.80;63.50;;;;;;2337218;53;21575;-73
2021/09/10 09:41:22;;;;;;;5.97;4.45;;;24.80;63.60;;;;;;2485277;52;21013;-72
2021/09/10 09:43:50;;;;;;;6.47;3.97;;;24.90;63.30;;;;;;2340959;53;21421;-75
2021/09/10 09:46:20;;;;;;;6.43;4.93;;;25.00;63.10;;;;;;2347787;53;21104;-72
2021/09/10 09:48:50;;;;;;;4.47;3.28;;;25.00;62.70;;;;;;2351540;52;20970;-73
2021/09/10 09:51:18;;;;;;;6.28;4.18;;;25.00;62.80;;;;;;2351786;53;20978;-73
2021/09/10 09:53:45;;;;;;;4.85;3.58;;;25.00;63.00;;;;;;2352082;53;21915;-73
2021/09/10 09:56:11;;;;;;;5.87;4.15;;;25.00;63.00;;;;;;2327860;53;20942;-71
2021/09/10 09:58:38;;;;;;;5.20;3.95;;;25.10;63.00;;;;;;2350822;52;21038;-73
2021/09/10 10:01:05;;;;;;;5.25;4.05;;;25.10;63.10;;;;;;2472102;52;21665;-72
2021/09/10 10:03:31;;;;;;;6.00;4.10;;;25.20;63.00;;;;;;2597819;52;21570;-71
2021/09/10 10:06:10;;;;;;;4.87;3.75;;;25.20;62.80;;;;;;2352294;52;21474;-71
2021/09/10 10:09:58;;;;;;;4.90;3.60;;;25.20;62.50;;;;;;2348227;53;21466;-74
2021/09/10 10:12:25;;;;;;;4.93;3.37;;;25.30;62.10;;;;;;2349106;52;21459;-73
2021/09/10 10:14:51;;;;;;;5.12;3.60;;;25.30;62.70;;;;;;2347874;53;20941;-73
2021/09/10 10:17:35;;;;;;;4.80;3.50;;;25.30;62.70;;;;;;2596793;52;21506;-73
2021/09/10 10:20:02;;;;;;;5.40;3.60;;;25.40;62.40;;;;;;2347277;53;20969;-71
2021/09/10 10:22:32;;;;;;;5.40;3.70;;;25.40;62.70;;;;;;2351455;53;21034;-72
2021/09/10 10:24:58;;;;;;;6.68;4.22;;;25.40;62.40;;;;;;2347207;53;21910;-73
2021/09/10 10:28:46;;;;;;;5.35;3.92;;;25.40;62.20;;;;;;2351645;52;21369;-73
2021/09/10 10:31:13;;;;;;;4.40;3.20;;;25.50;61.70;;;;;;2352320;52;21298;-71
2021/09/10 10:34:04;;;;;;;5.10;3.60;;;25.50;62.00;;;;;;2355323;53;21576;-74
2021/09/10 10:36:36;;;;;;;4.93;3.42;;;25.50;61.50;;;;;;2589733;52;21225;-74
2021/09/10 10:39:35;;;;;;;4.45;3.12;;;25.50;61.70;;;;;;2354282;53;21511;-73
2021/09/10 10:42:03;;;;;;;3.62;2.53;;;25.50;62.20;;;;;;2347498;53;21002;-72
2021/09/10 10:45:02;;;;;;;3.75;2.60;;;25.50;61.90;;;;;;2427500;52;20989;-72
2021/09/10 10:47:33;;;;;;;4.22;2.87;;;25.50;61.50;;;;;;2347059;52;21617;-73
2021/09/10 10:49:59;;;;;;;4.28;2.80;;;25.50;61.80;;;;;;2347579;53;21683;-72
2021/09/10 10:52:36;;;;;;;4.03;2.90;;;25.50;61.70;;;;;;2354716;52;21607;-71
2021/09/10 10:55:23;;;;;;;4.60;3.40;;;25.50;61.50;;;;;;2376315;52;21620;-75
2021/09/10 10:57:51;;;;;;;4.80;3.55;;;25.50;61.00;;;;;;2350205;52;20963;-72
2021/09/10 11:01:17;;;;;;;4.65;3.60;;;25.50;61.20;;;;;;2456487;52;20993;-75
2021/09/10 11:03:52;;;;;;;5.18;3.45;;;25.40;60.60;;;;;;2364450;52;21507;-73
2021/09/10 11:06:26;;;;;;;6.12;3.47;;;25.40;60.90;;;;;;2348837;53;21033;-74
2021/09/10 11:08:52;;;;;;;4.80;3.40;;;25.40;60.90;;;;;;2332431;53;21027;-74
2021/09/10 11:11:19;;;;;;;4.40;3.05;;;25.40;61.20;;;;;;2348043;53;21001;-70
2021/09/10 11:13:45;;;;;;;5.50;3.67;;;25.40;61.40;;;;;;2357076;52;20994;-72
2021/09/10 11:16:25;;;;;;;5.53;3.97;;;25.40;62.10;;;;;;2342420;53;21116;-71
2021/09/10 11:18:51;;;;;;;5.35;3.67;;;25.40;60.90;;;;;;2350044;53;21102;-74
2021/09/10 11:21:17;;;;;;;4.35;3.22;;;25.30;61.30;;;;;;2354909;52;22018;-74
2021/09/10 11:23:43;;;;;;;4.97;3.33;;;25.40;61.60;;;;;;2417641;52;1342916;-74
2021/09/10 11:26:10;;;;;;;5.15;3.42;;;25.30;61.70;;;;;;2598951;52;21006;-75
2021/09/10 11:28:37;;;;;;;4.03;2.97;;;25.40;62.30;;;;;;2352833;52;21656;-74
2021/09/10 11:31:04;;;;;;;4.50;3.37;;;25.40;62.40;;;;;;2354409;52;22017;-71
2021/09/10 11:33:40;;;;;;;5.25;3.33;;;25.50;62.60;;;;;;2348787;53;20957;-71
2021/09/10 11:36:07;;;;;;;7.00;4.12;;;25.60;62.50;;;;;;2354983;52;20963;-72
2021/09/10 11:38:35;;;;;;;4.65;3.40;;;25.70;62.60;;;;;;2349676;53;21049;-74
2021/09/10 11:41:06;;;;;;;7.20;4.20;;;25.80;62.50;;;;;;2358989;52;21160;-73
2021/09/10 11:43:34;;;;;;;5.20;3.90;;;25.90;62.10;;;;;;2349521;53;21300;-73
2021/09/10 11:46:10;;;;;;;4.80;3.62;;;26.00;61.90;;;;;;2552970;52;21080;-74
2021/09/10 11:48:46;;;;;;;6.32;4.15;;;26.00;61.40;;;;;;2349013;53;20973;-73
2021/09/10 11:51:13;;;;;;;6.05;3.90;;;26.10;61.40;;;;;;2353371;52;21080;-75
2021/09/10 11:53:53;;;;;;;7.87;4.18;;;26.10;61.10;;;;;;2347705;53;21211;-73
2021/09/10 11:56:28;;;;;;;4.45;3.45;;;26.10;60.50;;;;;;2357579;52;21078;-73
2021/09/10 11:58:55;;;;;;;5.10;3.62;;;26.20;60.70;;;;;;2341425;53;20965;-73
2021/09/10 12:01:39;;;;;;;4.85;3.95;;;26.20;61.10;;;;;;2352658;52;20951;-73
2021/09/10 12:04:10;;;;;;;5.97;3.95;;;26.20;60.50;;;;;;2353278;53;20962;-73
2021/09/10 12:06:50;;;;;;;4.70;3.33;;;26.30;60.80;;;;;;2330099;53;21101;-74
2021/09/10 12:09:31;;;;;;;5.75;3.75;;;26.20;60.50;;;;;;2349865;53;21004;-73
2021/09/10 12:12:15;;;;;;;4.57;3.20;;;26.20;60.20;;;;;;2350668;53;21396;-73
2021/09/10 12:14:43;;;;;;;5.35;4.05;;;26.10;60.50;;;;;;2599201;52;20980;-71
2021/09/10 12:17:38;;;;;;;6.57;4.37;;;26.20;60.50;;;;;;2350098;53;20957;-72
2021/09/10 12:20:20;;;;;;;5.85;4.07;;;26.20;59.80;;;;;;2331448;53;20966;-73
2021/09/10 12:23:00;;;;;;;6.00;3.85;;;26.20;60.10;;;;;;2355300;52;20966;-73
2021/09/10 12:25:41;;;;;;;5.40;3.83;;;26.20;60.30;;;;;;2358096;52;20990;-72
2021/09/10 12:28:13;;;;;;;5.68;3.87;;;26.20;60.30;;;;;;2524785;52;20996;-73
2021/09/10 12:30:43;;;;;;;;;;;26.20;61.20;;;;;;2356216;53;21018;-70
2021/09/10 12:33:10;;;;;;;5.32;3.80;;;26.30;60.30;;;;;;2317726;53;20091;-70
2021/09/10 12:35:37;;;;;;;4.93;3.45;;;26.30;60.60;;;;;;2441086;52;20928;-70
2021/09/10 12:38:05;;;;;;;6.07;3.42;;;26.30;60.70;;;;;;2357756;52;20941;-70
2021/09/10 12:40:33;;;;;;;4.53;3.30;;;26.30;60.90;;;;;;2584612;52;21030;-71
2021/09/10 12:43:00;;;;;;;5.20;3.97;;;26.30;61.00;;;;;;2349230;53;20937;-71
2021/09/10 12:45:26;;;;;;;4.72;3.30;;;26.40;60.90;;;;;;2355184;52;20977;-73
2021/09/10 12:47:53;;;;;;;6.47;3.92;;;26.30;60.70;;;;;;2379672;52;21374;-73
2021/09/10 12:50:19;;;;;;;4.62;3.58;;;26.40;60.50;;;;;;2349862;53;20972;-71
2021/09/10 12:52:45;;;;;;;5.12;3.20;;;26.40;60.30;;;;;;2330658;53;20938;-67
2021/09/10 12:55:12;;;;;;;5.25;4.22;;;26.50;60.00;;;;;;2334456;53;21038;-73